sensor_id;sensor_type;location;lat;lon;timestamp;P1;durP1;ratioP1;P2;durP2;ratioP2
69627;SDS011;56850;51.984;5.088;2023-03-13T00:02:12;19.37;;;4.13;;
69627;SDS011;56850;51.984;5.088;2023-03-13T00:04:39;14.25;;;3.97;;
69627;SDS011;56850;51.984;5.088;2023-03-13T00:07:06;15.05;;;4.10;;
69627;SDS011;56850;51.984;5.088;2023-03-13T00:09:33;19.58;;;3.97;;
69627;SDS011;56850;51.984;5.088;2023-03-13T00:12:00;24.65;;;4.55;;
69627;SDS011;56850;51.984;5.088;2023-03-13T00:14:29;17.83;;;3.97;;
69627;SDS011;56850;51.984;5.088;2023-03-13T00:16:56;18.55;;;5.03;;
69627;SDS011;56850;51.984;5.088;2023-03-13T00:19:24;20.10;;;4.45;;
69627;SDS011;56850;51.984;5.088;2023-03-13T00:21:51;21.70;;;4.40;;
69627;SDS011;56850;51.984;5.088;2023-03-13T00:24:18;18.27;;;4.13;;
69627;SDS011;56850;51.984;5.088;2023-03-13T00:26:44;18.77;;;4.17;;
69627;SDS011;56850;51.984;5.088;2023-03-13T00:29:11;25.38;;;5.00;;
69627;SDS011;56850;51.984;5.088;2023-03-13T00:31:38;18.85;;;3.55;;
69627;SDS011;56850;51.984;5.088;2023-03-13T00:34:05;24.20;;;5.45;;
69627;SDS011;56850;51.984;5.088;2023-03-13T00:36:33;15.07;;;4.28;;
69627;SDS011;56850;51.984;5.088;2023-03-13T00:39:00;24.80;;;4.20;;
69627;SDS011;56850;51.984;5.088;2023-03-13T00:41:33;20.27;;;4.40;;
69627;SDS011;56850;51.984;5.088;2023-03-13T00:44:03;17.35;;;3.90;;
69627;SDS011;56850;51.984;5.088;2023-03-13T00:46:30;19.75;;;4.15;;
69627;SDS011;56850;51.984;5.088;2023-03-13T00:48:57;13.18;;;3.88;;
69627;SDS011;56850;51.984;5.088;2023-03-13T00:51:24;19.23;;;3.80;;
69627;SDS011;56850;51.984;5.088;2023-03-13T00:53:53;21.50;;;5.38;;
69627;SDS011;56850;51.984;5.088;2023-03-13T00:56:21;23.85;;;4.68;;
69627;SDS011;56850;51.984;5.088;2023-03-13T00:58:48;17.10;;;4.55;;
69627;SDS011;56850;51.984;5.088;2023-03-13T01:01:23;16.45;;;4.90;;
69627;SDS011;56850;51.984;5.088;2023-03-13T01:03:53;20.50;;;4.70;;
69627;SDS011;56850;51.984;5.088;2023-03-13T01:06:23;21.10;;;4.60;;
69627;SDS011;56850;51.984;5.088;2023-03-13T01:08:56;16.27;;;4.55;;
69627;SDS011;56850;51.984;5.088;2023-03-13T01:11:26;12.80;;;3.50;;
69627;SDS011;56850;51.984;5.088;2023-03-13T01:13:59;14.43;;;4.63;;
69627;SDS011;56850;51.984;5.088;2023-03-13T01:16:28;16.83;;;4.10;;
69627;SDS011;56850;51.984;5.088;2023-03-13T01:19:00;19.17;;;4.80;;
69627;SDS011;56850;51.984;5.088;2023-03-13T01:21:28;16.63;;;4.32;;
69627;SDS011;56850;51.984;5.088;2023-03-13T01:23:56;11.52;;;3.63;;
69627;SDS011;56850;51.984;5.088;2023-03-13T01:26:23;16.40;;;3.90;;
69627;SDS011;56850;51.984;5.088;2023-03-13T01:28:52;17.63;;;4.83;;
69627;SDS011;56850;51.984;5.088;2023-03-13T01:31:21;10.48;;;4.38;;
69627;SDS011;56850;51.984;5.088;2023-03-13T01:33:50;14.80;;;4.72;;
69627;SDS011;56850;51.984;5.088;2023-03-13T01:36:21;15.73;;;4.88;;
69627;SDS011;56850;51.984;5.088;2023-03-13T01:38:51;16.65;;;4.80;;
69627;SDS011;56850;51.984;5.088;2023-03-13T01:41:20;12.63;;;4.47;;
69627;SDS011;56850;51.984;5.088;2023-03-13T01:43:48;15.18;;;4.75;;
69627;SDS011;56850;51.984;5.088;2023-03-13T01:46:16;14.65;;;5.40;;
69627;SDS011;56850;51.984;5.088;2023-03-13T01:52:12;11.13;;;4.60;;
69627;SDS011;56850;51.984;5.088;2023-03-13T01:57:30;13.55;;;5.25;;
69627;SDS011;56850;51.984;5.088;2023-03-13T02:02:41;12.70;;;5.57;;
69627;SDS011;56850;51.984;5.088;2023-03-13T02:05:11;14.70;;;5.57;;
69627;SDS011;56850;51.984;5.088;2023-03-13T02:07:47;12.17;;;5.70;;
69627;SDS011;56850;51.984;5.088;2023-03-13T02:10:17;13.90;;;5.50;;
69627;SDS011;56850;51.984;5.088;2023-03-13T02:12:44;10.48;;;6.07;;
69627;SDS011;56850;51.984;5.088;2023-03-13T02:15:13;13.45;;;6.40;;
69627;SDS011;56850;51.984;5.088;2023-03-13T02:17:41;13.07;;;6.78;;
69627;SDS011;56850;51.984;5.088;2023-03-13T02:20:10;14.27;;;7.53;;
69627;SDS011;56850;51.984;5.088;2023-03-13T02:22:41;19.13;;;6.93;;
69627;SDS011;56850;51.984;5.088;2023-03-13T02:28:00;13.05;;;7.10;;
69627;SDS011;56850;51.984;5.088;2023-03-13T02:30:32;13.90;;;7.90;;
69627;SDS011;56850;51.984;5.088;2023-03-13T02:33:01;16.47;;;8.57;;
69627;SDS011;56850;51.984;5.088;2023-03-13T02:35:29;17.15;;;9.07;;
69627;SDS011;56850;51.984;5.088;2023-03-13T02:38:01;18.42;;;9.80;;
69627;SDS011;56850;51.984;5.088;2023-03-13T02:40:32;18.42;;;8.95;;
69627;SDS011;56850;51.984;5.088;2023-03-13T02:43:07;14.93;;;8.88;;
69627;SDS011;56850;51.984;5.088;2023-03-13T02:45:41;13.73;;;8.33;;
69627;SDS011;56850;51.984;5.088;2023-03-13T02:48:09;13.27;;;9.25;;
69627;SDS011;56850;51.984;5.088;2023-03-13T02:50:36;15.43;;;9.50;;
69627;SDS011;56850;51.984;5.088;2023-03-13T02:53:04;17.23;;;9.63;;
69627;SDS011;56850;51.984;5.088;2023-03-13T02:55:37;13.38;;;9.40;;
69627;SDS011;56850;51.984;5.088;2023-03-13T02:58:07;14.30;;;8.10;;
69627;SDS011;56850;51.984;5.088;2023-03-13T03:00:36;17.13;;;7.65;;
69627;SDS011;56850;51.984;5.088;2023-03-13T03:03:03;12.07;;;7.20;;
69627;SDS011;56850;51.984;5.088;2023-03-13T03:05:29;13.23;;;7.13;;
69627;SDS011;56850;51.984;5.088;2023-03-13T03:07:57;9.30;;;5.57;;
69627;SDS011;56850;51.984;5.088;2023-03-13T03:10:24;11.33;;;6.37;;
69627;SDS011;56850;51.984;5.088;2023-03-13T03:12:51;12.70;;;6.65;;
69627;SDS011;56850;51.984;5.088;2023-03-13T03:15:18;11.57;;;6.20;;
69627;SDS011;56850;51.984;5.088;2023-03-13T03:17:46;13.20;;;6.78;;
69627;SDS011;56850;51.984;5.088;2023-03-13T03:20:13;11.23;;;6.95;;
69627;SDS011;56850;51.984;5.088;2023-03-13T03:22:41;10.47;;;5.63;;
69627;SDS011;56850;51.984;5.088;2023-03-13T03:25:08;12.90;;;6.82;;
69627;SDS011;56850;51.984;5.088;2023-03-13T03:27:35;9.68;;;6.07;;
69627;SDS011;56850;51.984;5.088;2023-03-13T03:30:05;12.38;;;6.22;;
69627;SDS011;56850;51.984;5.088;2023-03-13T03:32:34;8.95;;;5.43;;
69627;SDS011;56850;51.984;5.088;2023-03-13T03:35:01;13.17;;;6.30;;
69627;SDS011;56850;51.984;5.088;2023-03-13T03:37:28;9.15;;;6.10;;
69627;SDS011;56850;51.984;5.088;2023-03-13T03:39:56;6.03;;;4.45;;
69627;SDS011;56850;51.984;5.088;2023-03-13T03:42:23;11.63;;;5.25;;
69627;SDS011;56850;51.984;5.088;2023-03-13T03:44:50;8.25;;;4.97;;
69627;SDS011;56850;51.984;5.088;2023-03-13T03:47:17;10.70;;;5.03;;
69627;SDS011;56850;51.984;5.088;2023-03-13T03:49:46;9.40;;;4.97;;
69627;SDS011;56850;51.984;5.088;2023-03-13T03:52:14;7.78;;;4.88;;
69627;SDS011;56850;51.984;5.088;2023-03-13T03:54:42;10.30;;;5.38;;
69627;SDS011;56850;51.984;5.088;2023-03-13T03:57:09;7.60;;;5.15;;
69627;SDS011;56850;51.984;5.088;2023-03-13T03:59:38;8.33;;;5.50;;
69627;SDS011;56850;51.984;5.088;2023-03-13T04:02:07;7.82;;;4.75;;
69627;SDS011;56850;51.984;5.088;2023-03-13T04:04:34;8.45;;;5.32;;
69627;SDS011;56850;51.984;5.088;2023-03-13T04:07:21;6.80;;;4.90;;
69627;SDS011;56850;51.984;5.088;2023-03-13T04:09:49;11.57;;;5.57;;
69627;SDS011;56850;51.984;5.088;2023-03-13T04:12:25;7.73;;;5.73;;
69627;SDS011;56850;51.984;5.088;2023-03-13T04:14:54;9.68;;;5.50;;
69627;SDS011;56850;51.984;5.088;2023-03-13T04:17:20;8.73;;;4.97;;
69627;SDS011;56850;51.984;5.088;2023-03-13T04:19:47;11.73;;;5.85;;
69627;SDS011;56850;51.984;5.088;2023-03-13T04:22:14;9.30;;;5.57;;
69627;SDS011;56850;51.984;5.088;2023-03-13T04:24:48;8.07;;;4.63;;
69627;SDS011;56850;51.984;5.088;2023-03-13T04:27:16;8.77;;;5.57;;
69627;SDS011;56850;51.984;5.088;2023-03-13T04:29:44;12.30;;;5.90;;
69627;SDS011;56850;51.984;5.088;2023-03-13T04:32:30;7.30;;;4.70;;
69627;SDS011;56850;51.984;5.088;2023-03-13T04:35:04;7.70;;;4.88;;
69627;SDS011;56850;51.984;5.088;2023-03-13T04:38:01;9.10;;;4.80;;
69627;SDS011;56850;51.984;5.088;2023-03-13T04:40:46;8.60;;;4.97;;
69627;SDS011;56850;51.984;5.088;2023-03-13T04:43:37;7.30;;;4.22;;
69627;SDS011;56850;51.984;5.088;2023-03-13T04:46:23;6.57;;;4.18;;
69627;SDS011;56850;51.984;5.088;2023-03-13T04:49:11;6.53;;;4.03;;
69627;SDS011;56850;51.984;5.088;2023-03-13T04:51:56;7.67;;;3.73;;
69627;SDS011;56850;51.984;5.088;2023-03-13T04:54:29;6.78;;;3.63;;
69627;SDS011;56850;51.984;5.088;2023-03-13T04:57:06;8.90;;;3.67;;
69627;SDS011;56850;51.984;5.088;2023-03-13T04:59:53;6.95;;;3.63;;
69627;SDS011;56850;51.984;5.088;2023-03-13T05:02:33;7.05;;;3.30;;
69627;SDS011;56850;51.984;5.088;2023-03-13T05:05:24;9.90;;;3.33;;
69627;SDS011;56850;51.984;5.088;2023-03-13T05:08:00;6.65;;;3.70;;
69627;SDS011;56850;51.984;5.088;2023-03-13T05:10:46;5.53;;;3.22;;
69627;SDS011;56850;51.984;5.088;2023-03-13T05:13:24;5.25;;;2.88;;
69627;SDS011;56850;51.984;5.088;2023-03-13T05:16:07;10.13;;;3.45;;
69627;SDS011;56850;51.984;5.088;2023-03-13T05:18:54;8.03;;;3.03;;
69627;SDS011;56850;51.984;5.088;2023-03-13T05:21:38;8.65;;;3.60;;
69627;SDS011;56850;51.984;5.088;2023-03-13T05:24:25;8.80;;;3.10;;
69627;SDS011;56850;51.984;5.088;2023-03-13T05:27:06;6.95;;;3.28;;
69627;SDS011;56850;51.984;5.088;2023-03-13T05:29:38;9.48;;;3.45;;
69627;SDS011;56850;51.984;5.088;2023-03-13T05:32:15;7.30;;;3.43;;
69627;SDS011;56850;51.984;5.088;2023-03-13T05:35:01;8.45;;;3.30;;
69627;SDS011;56850;51.984;5.088;2023-03-13T05:37:57;8.00;;;3.40;;
69627;SDS011;56850;51.984;5.088;2023-03-13T05:40:40;7.50;;;3.28;;
69627;SDS011;56850;51.984;5.088;2023-03-13T05:43:33;7.78;;;2.90;;
69627;SDS011;56850;51.984;5.088;2023-03-13T05:46:06;7.20;;;3.30;;
69627;SDS011;56850;51.984;5.088;2023-03-13T05:49:02;10.20;;;3.33;;
69627;SDS011;56850;51.984;5.088;2023-03-13T05:51:29;7.60;;;2.92;;
69627;SDS011;56850;51.984;5.088;2023-03-13T05:54:24;6.57;;;3.10;;
69627;SDS011;56850;51.984;5.088;2023-03-13T05:57:14;9.38;;;3.33;;
69627;SDS011;56850;51.984;5.088;2023-03-13T05:59:59;5.80;;;2.80;;
69627;SDS011;56850;51.984;5.088;2023-03-13T06:02:44;8.27;;;3.75;;
69627;SDS011;56850;51.984;5.088;2023-03-13T06:05:17;7.30;;;3.30;;
69627;SDS011;56850;51.984;5.088;2023-03-13T06:07:45;6.53;;;3.33;;
69627;SDS011;56850;51.984;5.088;2023-03-13T06:10:12;6.97;;;3.08;;
69627;SDS011;56850;51.984;5.088;2023-03-13T06:12:39;11.40;;;2.90;;
69627;SDS011;56850;51.984;5.088;2023-03-13T06:15:10;6.10;;;2.78;;
69627;SDS011;56850;51.984;5.088;2023-03-13T06:18:04;7.32;;;3.00;;
69627;SDS011;56850;51.984;5.088;2023-03-13T06:20:30;8.27;;;2.88;;
69627;SDS011;56850;51.984;5.088;2023-03-13T06:22:57;6.80;;;3.13;;
69627;SDS011;56850;51.984;5.088;2023-03-13T06:25:24;11.47;;;3.20;;
69627;SDS011;56850;51.984;5.088;2023-03-13T06:27:51;10.10;;;3.00;;
69627;SDS011;56850;51.984;5.088;2023-03-13T06:30:18;7.95;;;2.53;;
69627;SDS011;56850;51.984;5.088;2023-03-13T06:32:45;5.97;;;2.55;;
69627;SDS011;56850;51.984;5.088;2023-03-13T06:35:12;10.68;;;3.20;;
69627;SDS011;56850;51.984;5.088;2023-03-13T06:37:39;6.57;;;2.80;;
69627;SDS011;56850;51.984;5.088;2023-03-13T06:40:06;9.40;;;2.97;;
69627;SDS011;56850;51.984;5.088;2023-03-13T06:42:33;5.80;;;3.22;;
69627;SDS011;56850;51.984;5.088;2023-03-13T06:45:00;6.90;;;3.20;;
69627;SDS011;56850;51.984;5.088;2023-03-13T06:47:31;7.35;;;3.25;;
69627;SDS011;56850;51.984;5.088;2023-03-13T06:49:58;7.70;;;3.10;;
69627;SDS011;56850;51.984;5.088;2023-03-13T06:52:25;7.85;;;3.50;;
69627;SDS011;56850;51.984;5.088;2023-03-13T06:55:08;6.50;;;3.10;;
69627;SDS011;56850;51.984;5.088;2023-03-13T06:57:35;6.68;;;3.13;;
69627;SDS011;56850;51.984;5.088;2023-03-13T07:00:03;8.52;;;2.60;;
69627;SDS011;56850;51.984;5.088;2023-03-13T07:02:36;8.10;;;3.17;;
69627;SDS011;56850;51.984;5.088;2023-03-13T07:05:03;6.57;;;2.47;;
69627;SDS011;56850;51.984;5.088;2023-03-13T07:07:31;8.13;;;3.30;;
69627;SDS011;56850;51.984;5.088;2023-03-13T07:10:00;10.20;;;3.70;;
69627;SDS011;56850;51.984;5.088;2023-03-13T07:12:28;7.93;;;2.88;;
69627;SDS011;56850;51.984;5.088;2023-03-13T07:14:55;11.77;;;3.20;;
69627;SDS011;56850;51.984;5.088;2023-03-13T07:17:22;9.20;;;4.10;;
69627;SDS011;56850;51.984;5.088;2023-03-13T07:19:49;14.00;;;4.00;;
69627;SDS011;56850;51.984;5.088;2023-03-13T07:22:16;10.35;;;3.28;;
69627;SDS011;56850;51.984;5.088;2023-03-13T07:24:43;10.88;;;3.53;;
69627;SDS011;56850;51.984;5.088;2023-03-13T07:27:10;8.97;;;3.43;;
69627;SDS011;56850;51.984;5.088;2023-03-13T07:29:37;8.77;;;3.33;;
69627;SDS011;56850;51.984;5.088;2023-03-13T07:32:04;10.18;;;3.88;;
69627;SDS011;56850;51.984;5.088;2023-03-13T07:34:31;4.22;;;2.78;;
69627;SDS011;56850;51.984;5.088;2023-03-13T07:36:58;10.57;;;3.92;;
69627;SDS011;56850;51.984;5.088;2023-03-13T07:39:25;6.43;;;3.30;;
69627;SDS011;56850;51.984;5.088;2023-03-13T07:41:52;8.43;;;3.80;;
69627;SDS011;56850;51.984;5.088;2023-03-13T07:44:19;9.30;;;3.05;;
69627;SDS011;56850;51.984;5.088;2023-03-13T07:46:46;6.78;;;2.67;;
69627;SDS011;56850;51.984;5.088;2023-03-13T07:49:13;9.23;;;3.58;;
69627;SDS011;56850;51.984;5.088;2023-03-13T07:51:40;8.70;;;3.60;;
69627;SDS011;56850;51.984;5.088;2023-03-13T07:54:09;5.75;;;3.40;;
69627;SDS011;56850;51.984;5.088;2023-03-13T07:56:37;9.25;;;3.35;;
69627;SDS011;56850;51.984;5.088;2023-03-13T07:59:04;11.30;;;3.30;;
69627;SDS011;56850;51.984;5.088;2023-03-13T08:01:32;9.18;;;3.05;;
69627;SDS011;56850;51.984;5.088;2023-03-13T08:03:59;8.93;;;3.30;;
69627;SDS011;56850;51.984;5.088;2023-03-13T08:06:32;10.48;;;3.55;;
69627;SDS011;56850;51.984;5.088;2023-03-13T08:09:02;9.15;;;3.35;;
69627;SDS011;56850;51.984;5.088;2023-03-13T08:11:29;7.10;;;3.30;;
69627;SDS011;56850;51.984;5.088;2023-03-13T08:13:56;9.48;;;3.30;;
69627;SDS011;56850;51.984;5.088;2023-03-13T08:16:24;10.63;;;3.47;;
69627;SDS011;56850;51.984;5.088;2023-03-13T08:18:56;9.55;;;3.55;;
69627;SDS011;56850;51.984;5.088;2023-03-13T08:21:25;6.43;;;3.30;;
69627;SDS011;56850;51.984;5.088;2023-03-13T08:23:54;10.25;;;3.63;;
69627;SDS011;56850;51.984;5.088;2023-03-13T08:26:24;7.18;;;3.50;;
69627;SDS011;56850;51.984;5.088;2023-03-13T08:28:53;9.40;;;3.67;;
69627;SDS011;56850;51.984;5.088;2023-03-13T08:31:26;9.45;;;3.45;;
69627;SDS011;56850;51.984;5.088;2023-03-13T08:33:55;8.77;;;3.70;;
69627;SDS011;56850;51.984;5.088;2023-03-13T08:36:24;8.32;;;3.50;;
69627;SDS011;56850;51.984;5.088;2023-03-13T08:39:00;6.68;;;2.60;;
69627;SDS011;56850;51.984;5.088;2023-03-13T08:41:32;6.10;;;2.77;;
69627;SDS011;56850;51.984;5.088;2023-03-13T08:44:04;11.35;;;3.50;;
69627;SDS011;56850;51.984;5.088;2023-03-13T08:46:33;5.88;;;2.53;;
69627;SDS011;56850;51.984;5.088;2023-03-13T08:49:01;8.00;;;2.90;;
69627;SDS011;56850;51.984;5.088;2023-03-13T08:51:29;4.32;;;2.90;;
69627;SDS011;56850;51.984;5.088;2023-03-13T08:53:56;6.93;;;2.83;;
69627;SDS011;56850;51.984;5.088;2023-03-13T08:56:24;7.43;;;2.53;;
69627;SDS011;56850;51.984;5.088;2023-03-13T08:58:53;8.68;;;2.53;;
69627;SDS011;56850;51.984;5.088;2023-03-13T09:01:23;7.20;;;2.72;;
69627;SDS011;56850;51.984;5.088;2023-03-13T09:03:51;3.47;;;1.65;;
69627;SDS011;56850;51.984;5.088;2023-03-13T09:06:18;11.30;;;2.67;;
69627;SDS011;56850;51.984;5.088;2023-03-13T09:08:45;4.40;;;1.80;;
69627;SDS011;56850;51.984;5.088;2023-03-13T09:11:13;5.65;;;2.03;;
69627;SDS011;56850;51.984;5.088;2023-03-13T09:13:42;9.13;;;2.70;;
69627;SDS011;56850;51.984;5.088;2023-03-13T09:16:12;3.47;;;2.10;;
69627;SDS011;56850;51.984;5.088;2023-03-13T09:18:44;6.00;;;2.17;;
69627;SDS011;56850;51.984;5.088;2023-03-13T09:21:16;5.13;;;2.25;;
69627;SDS011;56850;51.984;5.088;2023-03-13T09:23:45;7.00;;;2.42;;
69627;SDS011;56850;51.984;5.088;2023-03-13T09:26:12;7.93;;;2.40;;
69627;SDS011;56850;51.984;5.088;2023-03-13T09:28:40;8.50;;;2.30;;
69627;SDS011;56850;51.984;5.088;2023-03-13T09:31:14;12.43;;;2.20;;
69627;SDS011;56850;51.984;5.088;2023-03-13T09:33:52;6.80;;;2.35;;
69627;SDS011;56850;51.984;5.088;2023-03-13T09:36:19;7.43;;;1.70;;
69627;SDS011;56850;51.984;5.088;2023-03-13T09:38:51;5.57;;;2.17;;
69627;SDS011;56850;51.984;5.088;2023-03-13T09:41:22;7.32;;;2.10;;
69627;SDS011;56850;51.984;5.088;2023-03-13T09:43:50;7.23;;;2.10;;
69627;SDS011;56850;51.984;5.088;2023-03-13T09:49:11;3.78;;;1.50;;
69627;SDS011;56850;51.984;5.088;2023-03-13T09:51:57;6.82;;;1.83;;
69627;SDS011;56850;51.984;5.088;2023-03-13T09:54:35;5.32;;;1.45;;
69627;SDS011;56850;51.984;5.088;2023-03-13T09:57:06;5.40;;;2.13;;
69627;SDS011;56850;51.984;5.088;2023-03-13T09:59:50;8.60;;;2.03;;
69627;SDS011;56850;51.984;5.088;2023-03-13T10:02:27;7.00;;;1.70;;
69627;SDS011;56850;51.984;5.088;2023-03-13T10:05:09;3.80;;;1.85;;
69627;SDS011;56850;51.984;5.088;2023-03-13T10:08:00;5.40;;;2.13;;
69627;SDS011;56850;51.984;5.088;2023-03-13T10:10:48;5.03;;;2.00;;
69627;SDS011;56850;51.984;5.088;2023-03-13T10:13:34;4.32;;;1.88;;
69627;SDS011;56850;51.984;5.088;2023-03-13T10:16:20;5.30;;;2.08;;
69627;SDS011;56850;51.984;5.088;2023-03-13T10:18:52;4.32;;;1.80;;
69627;SDS011;56850;51.984;5.088;2023-03-13T10:21:23;4.97;;;1.60;;
69627;SDS011;56850;51.984;5.088;2023-03-13T10:26:55;4.22;;;1.98;;
69627;SDS011;56850;51.984;5.088;2023-03-13T10:29:27;5.82;;;1.85;;
69627;SDS011;56850;51.984;5.088;2023-03-13T10:31:56;5.40;;;2.17;;
69627;SDS011;56850;51.984;5.088;2023-03-13T10:34:44;3.80;;;1.73;;
69627;SDS011;56850;51.984;5.088;2023-03-13T10:37:15;5.07;;;2.17;;
69627;SDS011;56850;51.984;5.088;2023-03-13T10:39:45;5.72;;;1.92;;
69627;SDS011;56850;51.984;5.088;2023-03-13T10:42:22;5.80;;;2.58;;
69627;SDS011;56850;51.984;5.088;2023-03-13T10:44:56;4.57;;;2.22;;
69627;SDS011;56850;51.984;5.088;2023-03-13T10:47:25;6.15;;;2.63;;
69627;SDS011;56850;51.984;5.088;2023-03-13T10:49:56;6.33;;;2.13;;
69627;SDS011;56850;51.984;5.088;2023-03-13T10:52:43;5.28;;;2.20;;
69627;SDS011;56850;51.984;5.088;2023-03-13T10:55:15;4.28;;;1.90;;
69627;SDS011;56850;51.984;5.088;2023-03-13T10:58:01;4.95;;;1.92;;
69627;SDS011;56850;51.984;5.088;2023-03-13T11:03:05;5.63;;;1.90;;
69627;SDS011;56850;51.984;5.088;2023-03-13T11:05:44;7.15;;;2.45;;
69627;SDS011;56850;51.984;5.088;2023-03-13T11:08:22;6.47;;;1.98;;
69627;SDS011;56850;51.984;5.088;2023-03-13T11:10:58;4.78;;;1.80;;
69627;SDS011;56850;51.984;5.088;2023-03-13T11:13:34;5.95;;;2.03;;
69627;SDS011;56850;51.984;5.088;2023-03-13T11:16:15;7.83;;;2.10;;
69627;SDS011;56850;51.984;5.088;2023-03-13T11:24:09;4.70;;;1.55;;
69627;SDS011;56850;51.984;5.088;2023-03-13T11:26:51;3.42;;;1.58;;
69627;SDS011;56850;51.984;5.088;2023-03-13T11:29:46;6.97;;;1.70;;
69627;SDS011;56850;51.984;5.088;2023-03-13T11:32:22;3.33;;;1.50;;
69627;SDS011;56850;51.984;5.088;2023-03-13T11:35:00;3.03;;;1.58;;
69627;SDS011;56850;51.984;5.088;2023-03-13T11:37:32;5.57;;;1.75;;
69627;SDS011;56850;51.984;5.088;2023-03-13T11:43:12;4.67;;;1.90;;
69627;SDS011;56850;51.984;5.088;2023-03-13T11:46:00;6.47;;;1.65;;
69627;SDS011;56850;51.984;5.088;2023-03-13T11:48:41;7.60;;;1.80;;
69627;SDS011;56850;51.984;5.088;2023-03-13T11:51:45;5.80;;;1.80;;
69627;SDS011;56850;51.984;5.088;2023-03-13T12:00:35;6.20;;;1.63;;
69627;SDS011;56850;51.984;5.088;2023-03-13T12:03:09;4.72;;;1.50;;
69627;SDS011;56850;51.984;5.088;2023-03-13T12:05:42;5.40;;;1.85;;
69627;SDS011;56850;51.984;5.088;2023-03-13T12:08:30;3.85;;;1.80;;
69627;SDS011;56850;51.984;5.088;2023-03-13T12:11:15;4.83;;;1.73;;
69627;SDS011;56850;51.984;5.088;2023-03-13T12:13:44;8.63;;;2.17;;
69627;SDS011;56850;51.984;5.088;2023-03-13T12:16:20;8.95;;;1.65;;
69627;SDS011;56850;51.984;5.088;2023-03-13T12:18:51;6.05;;;1.80;;
69627;SDS011;56850;51.984;5.088;2023-03-13T12:21:20;6.95;;;2.28;;
69627;SDS011;56850;51.984;5.088;2023-03-13T12:26:59;6.60;;;2.03;;
69627;SDS011;56850;51.984;5.088;2023-03-13T12:32:15;7.10;;;2.00;;
69627;SDS011;56850;51.984;5.088;2023-03-13T12:43:08;7.38;;;2.05;;
69627;SDS011;56850;51.984;5.088;2023-03-13T12:49:05;8.35;;;2.25;;
69627;SDS011;56850;51.984;5.088;2023-03-13T13:00:22;8.07;;;2.20;;
69627;SDS011;56850;51.984;5.088;2023-03-13T13:03:02;8.80;;;2.38;;
69627;SDS011;56850;51.984;5.088;2023-03-13T13:05:31;8.50;;;2.33;;
69627;SDS011;56850;51.984;5.088;2023-03-13T13:07:58;10.98;;;2.30;;
69627;SDS011;56850;51.984;5.088;2023-03-13T13:10:25;9.57;;;2.38;;
69627;SDS011;56850;51.984;5.088;2023-03-13T13:15:46;6.45;;;1.90;;
69627;SDS011;56850;51.984;5.088;2023-03-13T13:18:25;9.43;;;2.90;;
69627;SDS011;56850;51.984;5.088;2023-03-13T13:23:33;9.20;;;2.70;;
69627;SDS011;56850;51.984;5.088;2023-03-13T13:37:00;12.32;;;3.10;;
69627;SDS011;56850;51.984;5.088;2023-03-13T13:47:40;13.60;;;3.00;;
69627;SDS011;56850;51.984;5.088;2023-03-13T13:50:21;12.25;;;2.83;;
69627;SDS011;56850;51.984;5.088;2023-03-13T13:53:22;15.70;;;3.90;;
69627;SDS011;56850;51.984;5.088;2023-03-13T13:55:59;10.90;;;3.05;;
69627;SDS011;56850;51.984;5.088;2023-03-13T13:58:42;11.87;;;2.93;;
69627;SDS011;56850;51.984;5.088;2023-03-13T14:01:13;14.88;;;3.33;;
69627;SDS011;56850;51.984;5.088;2023-03-13T14:03:42;14.27;;;2.90;;
69627;SDS011;56850;51.984;5.088;2023-03-13T14:06:14;15.57;;;3.08;;
69627;SDS011;56850;51.984;5.088;2023-03-13T14:09:10;14.32;;;3.28;;
69627;SDS011;56850;51.984;5.088;2023-03-13T14:11:57;11.70;;;2.80;;
69627;SDS011;56850;51.984;5.088;2023-03-13T14:14:24;10.30;;;2.70;;
69627;SDS011;56850;51.984;5.088;2023-03-13T14:16:52;11.07;;;3.03;;
69627;SDS011;56850;51.984;5.088;2023-03-13T14:19:23;9.00;;;2.60;;
69627;SDS011;56850;51.984;5.088;2023-03-13T14:21:59;9.80;;;2.67;;
69627;SDS011;56850;51.984;5.088;2023-03-13T14:24:31;13.35;;;2.83;;
69627;SDS011;56850;51.984;5.088;2023-03-13T14:26:58;11.05;;;3.15;;
69627;SDS011;56850;51.984;5.088;2023-03-13T14:29:26;19.35;;;2.97;;
69627;SDS011;56850;51.984;5.088;2023-03-13T14:31:56;8.65;;;2.40;;
69627;SDS011;56850;51.984;5.088;2023-03-13T14:34:25;14.50;;;3.17;;
69627;SDS011;56850;51.984;5.088;2023-03-13T14:36:58;13.10;;;3.27;;
69627;SDS011;56850;51.984;5.088;2023-03-13T14:39:43;12.43;;;3.10;;
69627;SDS011;56850;51.984;5.088;2023-03-13T14:42:12;14.45;;;3.13;;
69627;SDS011;56850;51.984;5.088;2023-03-13T14:44:44;12.68;;;3.42;;
69627;SDS011;56850;51.984;5.088;2023-03-13T14:47:30;13.65;;;3.20;;
69627;SDS011;56850;51.984;5.088;2023-03-13T14:49:57;15.17;;;3.27;;
69627;SDS011;56850;51.984;5.088;2023-03-13T14:52:27;9.57;;;3.05;;
69627;SDS011;56850;51.984;5.088;2023-03-13T14:57:54;12.52;;;2.92;;
69627;SDS011;56850;51.984;5.088;2023-03-13T15:05:47;13.30;;;2.83;;
69627;SDS011;56850;51.984;5.088;2023-03-13T15:08:36;12.18;;;2.55;;
69627;SDS011;56850;51.984;5.088;2023-03-13T15:11:21;9.88;;;2.53;;
69627;SDS011;56850;51.984;5.088;2023-03-13T15:13:59;13.60;;;2.88;;
69627;SDS011;56850;51.984;5.088;2023-03-13T15:16:27;21.87;;;3.60;;
69627;SDS011;56850;51.984;5.088;2023-03-13T15:18:54;15.80;;;3.05;;
69627;SDS011;56850;51.984;5.088;2023-03-13T15:21:26;17.65;;;3.50;;
69627;SDS011;56850;51.984;5.088;2023-03-13T15:24:01;12.55;;;3.00;;
69627;SDS011;56850;51.984;5.088;2023-03-13T15:26:40;15.48;;;3.80;;
69627;SDS011;56850;51.984;5.088;2023-03-13T15:29:08;13.85;;;3.30;;
69627;SDS011;56850;51.984;5.088;2023-03-13T15:31:36;11.40;;;3.10;;
69627;SDS011;56850;51.984;5.088;2023-03-13T15:34:05;19.05;;;3.50;;
69627;SDS011;56850;51.984;5.088;2023-03-13T15:36:35;11.35;;;3.38;;
69627;SDS011;56850;51.984;5.088;2023-03-13T15:39:02;12.57;;;3.00;;
69627;SDS011;56850;51.984;5.088;2023-03-13T15:41:30;16.07;;;4.20;;
69627;SDS011;56850;51.984;5.088;2023-03-13T15:43:57;10.27;;;3.17;;
69627;SDS011;56850;51.984;5.088;2023-03-13T15:46:24;13.80;;;3.17;;
69627;SDS011;56850;51.984;5.088;2023-03-13T15:48:51;17.45;;;3.20;;
69627;SDS011;56850;51.984;5.088;2023-03-13T15:51:19;14.50;;;3.95;;
69627;SDS011;56850;51.984;5.088;2023-03-13T15:53:46;13.70;;;3.10;;
69627;SDS011;56850;51.984;5.088;2023-03-13T15:56:19;15.80;;;3.40;;
69627;SDS011;56850;51.984;5.088;2023-03-13T15:58:50;14.00;;;3.70;;
69627;SDS011;56850;51.984;5.088;2023-03-13T16:01:17;13.70;;;3.25;;
69627;SDS011;56850;51.984;5.088;2023-03-13T16:03:44;16.67;;;3.17;;
69627;SDS011;56850;51.984;5.088;2023-03-13T16:06:13;16.17;;;3.07;;
69627;SDS011;56850;51.984;5.088;2023-03-13T16:08:40;15.35;;;3.90;;
69627;SDS011;56850;51.984;5.088;2023-03-13T16:11:08;16.08;;;3.67;;
69627;SDS011;56850;51.984;5.088;2023-03-13T16:13:38;14.80;;;3.63;;
69627;SDS011;56850;51.984;5.088;2023-03-13T16:16:10;19.70;;;4.05;;
69627;SDS011;56850;51.984;5.088;2023-03-13T16:18:46;19.00;;;3.70;;
69627;SDS011;56850;51.984;5.088;2023-03-13T16:21:32;17.65;;;3.88;;
69627;SDS011;56850;51.984;5.088;2023-03-13T16:24:00;17.73;;;3.47;;
69627;SDS011;56850;51.984;5.088;2023-03-13T16:26:28;19.77;;;4.10;;
69627;SDS011;56850;51.984;5.088;2023-03-13T16:28:57;16.88;;;3.80;;
69627;SDS011;56850;51.984;5.088;2023-03-13T16:31:25;16.50;;;3.43;;
69627;SDS011;56850;51.984;5.088;2023-03-13T16:33:53;19.33;;;3.72;;
69627;SDS011;56850;51.984;5.088;2023-03-13T16:36:22;19.75;;;3.95;;
69627;SDS011;56850;51.984;5.088;2023-03-13T16:38:50;20.90;;;4.05;;
69627;SDS011;56850;51.984;5.088;2023-03-13T16:41:18;20.83;;;3.67;;
69627;SDS011;56850;51.984;5.088;2023-03-13T16:43:47;12.37;;;2.97;;
69627;SDS011;56850;51.984;5.088;2023-03-13T16:46:19;19.83;;;4.00;;